Terminal Aerodrome Forecast
Issued by NWS

Current Version | Previous Version | Text Only | Print | Product List | Glossary On
Versions: 1 2 3 4 5 6 7 8 9 10 11 12 13 14 15 16 17 18 19 20 21 22
000
FTUS41 KPHI 111120
TAFMIV
TAF
KMIV 111120Z 1112/1212 25004KT P6SM BKN060
     FM111600 29008KT P6SM SCT070 SCT250
     FM112000 VRB04KT P6SM SKC
     FM120500 14004KT P6SM BKN140
     FM121000 17009KT P6SM OVC100=

USA.gov is the U.S. government's official web portal to all federal, state and local government web resources and services.